sensor_id;sensor_type;location;lat;lon;timestamp;temperature;humidity
42019;DHT22;27703;51.980;5.848;2023-03-05T00:01:19;5.30;99.90
42019;DHT22;27703;51.980;5.848;2023-03-05T00:03:47;5.30;99.90
42019;DHT22;27703;51.980;5.848;2023-03-05T00:06:13;5.30;99.90
42019;DHT22;27703;51.980;5.848;2023-03-05T00:08:41;5.30;99.90
42019;DHT22;27703;51.980;5.848;2023-03-05T00:11:08;5.30;99.90
42019;DHT22;27703;51.980;5.848;2023-03-05T00:13:35;5.30;99.90
42019;DHT22;27703;51.980;5.848;2023-03-05T00:16:05;5.30;99.90
42019;DHT22;27703;51.980;5.848;2023-03-05T00:18:32;5.30;99.90
42019;DHT22;27703;51.980;5.848;2023-03-05T00:20:57;5.30;99.90
42019;DHT22;27703;51.980;5.848;2023-03-05T00:23:23;5.20;99.90
42019;DHT22;27703;51.980;5.848;2023-03-05T00:25:49;5.20;99.90
42019;DHT22;27703;51.980;5.848;2023-03-05T00:28:14;5.30;99.90
42019;DHT22;27703;51.980;5.848;2023-03-05T00:30:40;5.30;99.90
42019;DHT22;27703;51.980;5.848;2023-03-05T00:33:06;5.30;99.90
42019;DHT22;27703;51.980;5.848;2023-03-05T00:35:38;5.20;99.90
42019;DHT22;27703;51.980;5.848;2023-03-05T00:38:04;5.20;99.90
42019;DHT22;27703;51.980;5.848;2023-03-05T00:40:30;5.20;99.90
42019;DHT22;27703;51.980;5.848;2023-03-05T00:42:55;5.20;99.90
42019;DHT22;27703;51.980;5.848;2023-03-05T00:45:21;5.20;99.90
42019;DHT22;27703;51.980;5.848;2023-03-05T00:47:46;5.20;99.90
42019;DHT22;27703;51.980;5.848;2023-03-05T00:50:12;5.20;99.90
42019;DHT22;27703;51.980;5.848;2023-03-05T00:52:37;5.30;99.90
42019;DHT22;27703;51.980;5.848;2023-03-05T00:55:03;5.20;99.90
42019;DHT22;27703;51.980;5.848;2023-03-05T00:57:29;5.20;99.90
42019;DHT22;27703;51.980;5.848;2023-03-05T00:59:54;5.20;99.90
42019;DHT22;27703;51.980;5.848;2023-03-05T01:02:20;5.30;99.90
42019;DHT22;27703;51.980;5.848;2023-03-05T01:04:45;5.20;99.90
42019;DHT22;27703;51.980;5.848;2023-03-05T01:07:12;5.20;99.90
42019;DHT22;27703;51.980;5.848;2023-03-05T01:09:37;5.20;99.90
42019;DHT22;27703;51.980;5.848;2023-03-05T01:12:03;5.20;99.90
42019;DHT22;27703;51.980;5.848;2023-03-05T01:14:29;5.30;99.90
42019;DHT22;27703;51.980;5.848;2023-03-05T01:16:54;5.30;99.90
42019;DHT22;27703;51.980;5.848;2023-03-05T01:19:20;5.20;99.90
42019;DHT22;27703;51.980;5.848;2023-03-05T01:21:45;5.20;99.90
42019;DHT22;27703;51.980;5.848;2023-03-05T01:24:11;5.20;99.90
42019;DHT22;27703;51.980;5.848;2023-03-05T01:26:36;5.20;99.90
42019;DHT22;27703;51.980;5.848;2023-03-05T01:29:03;5.20;99.90
42019;DHT22;27703;51.980;5.848;2023-03-05T01:31:28;5.20;99.90
42019;DHT22;27703;51.980;5.848;2023-03-05T01:33:55;5.20;99.90
42019;DHT22;27703;51.980;5.848;2023-03-05T01:36:21;5.20;99.90
42019;DHT22;27703;51.980;5.848;2023-03-05T01:38:49;5.20;99.90
42019;DHT22;27703;51.980;5.848;2023-03-05T01:41:16;5.20;99.90
42019;DHT22;27703;51.980;5.848;2023-03-05T01:43:43;5.20;99.90
42019;DHT22;27703;51.980;5.848;2023-03-05T01:46:32;5.20;99.90
42019;DHT22;27703;51.980;5.848;2023-03-05T01:51:32;5.10;99.90
42019;DHT22;27703;51.980;5.848;2023-03-05T01:54:00;5.10;99.90
42019;DHT22;27703;51.980;5.848;2023-03-05T01:56:26;5.10;99.90
42019;DHT22;27703;51.980;5.848;2023-03-05T01:58:53;5.10;99.90
42019;DHT22;27703;51.980;5.848;2023-03-05T02:01:22;5.10;99.90
42019;DHT22;27703;51.980;5.848;2023-03-05T02:03:47;5.10;99.90
42019;DHT22;27703;51.980;5.848;2023-03-05T02:06:13;5.10;99.90
42019;DHT22;27703;51.980;5.848;2023-03-05T02:08:39;5.10;99.90
42019;DHT22;27703;51.980;5.848;2023-03-05T02:11:04;5.10;99.90
42019;DHT22;27703;51.980;5.848;2023-03-05T02:13:32;5.00;99.90
42019;DHT22;27703;51.980;5.848;2023-03-05T02:16:00;5.00;99.90
42019;DHT22;27703;51.980;5.848;2023-03-05T02:18:26;5.00;99.90
42019;DHT22;27703;51.980;5.848;2023-03-05T02:23:25;5.00;99.90
42019;DHT22;27703;51.980;5.848;2023-03-05T02:25:51;5.00;99.90
42019;DHT22;27703;51.980;5.848;2023-03-05T02:28:22;5.00;99.90
42019;DHT22;27703;51.980;5.848;2023-03-05T02:30:49;5.00;99.90
42019;DHT22;27703;51.980;5.848;2023-03-05T02:33:15;5.00;99.90
42019;DHT22;27703;51.980;5.848;2023-03-05T02:35:42;5.00;99.90
42019;DHT22;27703;51.980;5.848;2023-03-05T02:38:08;5.00;99.90
42019;DHT22;27703;51.980;5.848;2023-03-05T02:40:34;5.00;99.90
42019;DHT22;27703;51.980;5.848;2023-03-05T02:43:00;5.00;99.90
42019;DHT22;27703;51.980;5.848;2023-03-05T02:45:25;5.00;99.90
42019;DHT22;27703;51.980;5.848;2023-03-05T02:47:51;5.00;99.90
42019;DHT22;27703;51.980;5.848;2023-03-05T02:50:16;5.00;99.90
42019;DHT22;27703;51.980;5.848;2023-03-05T02:52:42;4.90;99.90
42019;DHT22;27703;51.980;5.848;2023-03-05T02:55:08;4.90;99.90
42019;DHT22;27703;51.980;5.848;2023-03-05T02:57:33;5.00;99.90
42019;DHT22;27703;51.980;5.848;2023-03-05T02:59:59;5.00;99.90
42019;DHT22;27703;51.980;5.848;2023-03-05T03:02:25;5.00;99.90
42019;DHT22;27703;51.980;5.848;2023-03-05T03:04:50;5.00;99.90
42019;DHT22;27703;51.980;5.848;2023-03-05T03:07:16;5.00;99.90
42019;DHT22;27703;51.980;5.848;2023-03-05T03:09:41;5.00;99.90
42019;DHT22;27703;51.980;5.848;2023-03-05T03:12:09;5.00;99.90
42019;DHT22;27703;51.980;5.848;2023-03-05T03:14:37;5.00;99.90
42019;DHT22;27703;51.980;5.848;2023-03-05T03:17:15;5.00;99.90
42019;DHT22;27703;51.980;5.848;2023-03-05T03:19:42;5.00;99.90
42019;DHT22;27703;51.980;5.848;2023-03-05T03:22:09;4.90;99.90
42019;DHT22;27703;51.980;5.848;2023-03-05T03:24:36;4.90;99.90
42019;DHT22;27703;51.980;5.848;2023-03-05T03:27:03;4.90;99.90
42019;DHT22;27703;51.980;5.848;2023-03-05T03:29:29;4.90;99.90
42019;DHT22;27703;51.980;5.848;2023-03-05T03:31:55;4.90;99.90
42019;DHT22;27703;51.980;5.848;2023-03-05T03:34:21;4.90;99.90
42019;DHT22;27703;51.980;5.848;2023-03-05T03:36:48;4.90;99.90
42019;DHT22;27703;51.980;5.848;2023-03-05T03:39:14;4.90;99.90
42019;DHT22;27703;51.980;5.848;2023-03-05T03:41:42;4.90;99.90
42019;DHT22;27703;51.980;5.848;2023-03-05T03:44:08;4.90;99.90
42019;DHT22;27703;51.980;5.848;2023-03-05T03:46:36;4.90;99.90
42019;DHT22;27703;51.980;5.848;2023-03-05T03:49:01;4.90;99.90
42019;DHT22;27703;51.980;5.848;2023-03-05T03:51:27;4.90;99.90
42019;DHT22;27703;51.980;5.848;2023-03-05T03:53:53;4.80;99.90
42019;DHT22;27703;51.980;5.848;2023-03-05T03:56:18;4.80;99.90
42019;DHT22;27703;51.980;5.848;2023-03-05T03:58:44;4.90;99.90
42019;DHT22;27703;51.980;5.848;2023-03-05T04:01:09;4.90;99.90
42019;DHT22;27703;51.980;5.848;2023-03-05T04:03:35;4.80;99.90
42019;DHT22;27703;51.980;5.848;2023-03-05T04:06:01;4.80;99.90
42019;DHT22;27703;51.980;5.848;2023-03-05T04:08:26;4.80;99.90
42019;DHT22;27703;51.980;5.848;2023-03-05T04:10:52;4.80;99.90
42019;DHT22;27703;51.980;5.848;2023-03-05T04:13:17;4.80;99.90
42019;DHT22;27703;51.980;5.848;2023-03-05T04:15:43;4.70;99.90
42019;DHT22;27703;51.980;5.848;2023-03-05T04:18:09;4.70;99.90
42019;DHT22;27703;51.980;5.848;2023-03-05T04:20:35;4.70;99.90
42019;DHT22;27703;51.980;5.848;2023-03-05T04:23:01;4.70;99.90
42019;DHT22;27703;51.980;5.848;2023-03-05T04:25:26;4.70;99.90
42019;DHT22;27703;51.980;5.848;2023-03-05T04:27:52;4.70;99.90
42019;DHT22;27703;51.980;5.848;2023-03-05T04:30:17;4.70;99.90
42019;DHT22;27703;51.980;5.848;2023-03-05T04:32:43;4.70;99.90
42019;DHT22;27703;51.980;5.848;2023-03-05T04:35:09;4.70;99.90
42019;DHT22;27703;51.980;5.848;2023-03-05T04:37:34;4.70;99.90
42019;DHT22;27703;51.980;5.848;2023-03-05T04:40:00;4.70;99.90
42019;DHT22;27703;51.980;5.848;2023-03-05T04:42:25;4.70;99.90
42019;DHT22;27703;51.980;5.848;2023-03-05T04:44:51;4.70;99.90
42019;DHT22;27703;51.980;5.848;2023-03-05T04:47:17;4.70;99.90
42019;DHT22;27703;51.980;5.848;2023-03-05T04:49:43;4.70;99.90
42019;DHT22;27703;51.980;5.848;2023-03-05T04:52:10;4.70;99.90
42019;DHT22;27703;51.980;5.848;2023-03-05T04:54:36;4.70;99.90
42019;DHT22;27703;51.980;5.848;2023-03-05T04:57:02;4.70;99.90
42019;DHT22;27703;51.980;5.848;2023-03-05T04:59:27;4.70;99.90
42019;DHT22;27703;51.980;5.848;2023-03-05T05:01:53;4.70;99.90
42019;DHT22;27703;51.980;5.848;2023-03-05T05:04:19;4.70;99.90
42019;DHT22;27703;51.980;5.848;2023-03-05T05:06:44;4.70;99.90
42019;DHT22;27703;51.980;5.848;2023-03-05T05:09:10;4.70;99.90
42019;DHT22;27703;51.980;5.848;2023-03-05T05:11:35;4.70;99.90
42019;DHT22;27703;51.980;5.848;2023-03-05T05:14:01;4.70;99.90
42019;DHT22;27703;51.980;5.848;2023-03-05T05:16:27;4.70;99.90
42019;DHT22;27703;51.980;5.848;2023-03-05T05:18:53;4.70;99.90
42019;DHT22;27703;51.980;5.848;2023-03-05T05:21:18;4.70;99.90
42019;DHT22;27703;51.980;5.848;2023-03-05T05:23:45;4.70;99.90
42019;DHT22;27703;51.980;5.848;2023-03-05T05:26:11;4.70;99.90
42019;DHT22;27703;51.980;5.848;2023-03-05T05:28:39;4.70;99.90
42019;DHT22;27703;51.980;5.848;2023-03-05T05:31:08;4.70;99.90
42019;DHT22;27703;51.980;5.848;2023-03-05T05:33:34;4.60;99.90
42019;DHT22;27703;51.980;5.848;2023-03-05T05:36:09;4.60;99.90
42019;DHT22;27703;51.980;5.848;2023-03-05T05:38:36;4.70;99.90
42019;DHT22;27703;51.980;5.848;2023-03-05T05:41:13;4.60;99.90
42019;DHT22;27703;51.980;5.848;2023-03-05T05:43:39;4.60;99.90
42019;DHT22;27703;51.980;5.848;2023-03-05T05:46:07;4.60;99.90
42019;DHT22;27703;51.980;5.848;2023-03-05T05:48:34;4.60;99.90
42019;DHT22;27703;51.980;5.848;2023-03-05T05:51:05;4.60;99.90
42019;DHT22;27703;51.980;5.848;2023-03-05T05:53:32;4.60;99.90
42019;DHT22;27703;51.980;5.848;2023-03-05T05:55:58;4.60;99.90
42019;DHT22;27703;51.980;5.848;2023-03-05T05:58:23;4.60;99.90
42019;DHT22;27703;51.980;5.848;2023-03-05T06:00:49;4.50;99.90
42019;DHT22;27703;51.980;5.848;2023-03-05T06:03:14;4.50;99.90
42019;DHT22;27703;51.980;5.848;2023-03-05T06:05:41;4.50;99.90
42019;DHT22;27703;51.980;5.848;2023-03-05T06:08:07;4.50;99.90
42019;DHT22;27703;51.980;5.848;2023-03-05T06:10:32;4.50;99.90
42019;DHT22;27703;51.980;5.848;2023-03-05T06:12:58;4.50;99.90
42019;DHT22;27703;51.980;5.848;2023-03-05T06:15:23;4.50;99.90
42019;DHT22;27703;51.980;5.848;2023-03-05T06:17:49;4.50;99.90
42019;DHT22;27703;51.980;5.848;2023-03-05T06:20:15;4.50;99.90
42019;DHT22;27703;51.980;5.848;2023-03-05T06:22:40;4.50;99.90
42019;DHT22;27703;51.980;5.848;2023-03-05T06:25:07;4.50;99.90
42019;DHT22;27703;51.980;5.848;2023-03-05T06:27:36;4.50;99.90
42019;DHT22;27703;51.980;5.848;2023-03-05T06:30:04;4.50;99.90
42019;DHT22;27703;51.980;5.848;2023-03-05T06:32:29;4.50;99.90
42019;DHT22;27703;51.980;5.848;2023-03-05T06:34:55;4.50;99.90
42019;DHT22;27703;51.980;5.848;2023-03-05T06:37:20;4.50;99.90
42019;DHT22;27703;51.980;5.848;2023-03-05T06:39:46;4.40;99.90
42019;DHT22;27703;51.980;5.848;2023-03-05T06:42:12;4.40;99.90
42019;DHT22;27703;51.980;5.848;2023-03-05T06:44:40;4.40;99.90
42019;DHT22;27703;51.980;5.848;2023-03-05T06:47:07;4.50;99.90
42019;DHT22;27703;51.980;5.848;2023-03-05T06:49:35;4.50;99.90
42019;DHT22;27703;51.980;5.848;2023-03-05T06:52:01;4.50;99.90
42019;DHT22;27703;51.980;5.848;2023-03-05T06:54:27;4.40;99.90
42019;DHT22;27703;51.980;5.848;2023-03-05T06:56:52;4.50;99.90
42019;DHT22;27703;51.980;5.848;2023-03-05T06:59:18;4.50;99.90
42019;DHT22;27703;51.980;5.848;2023-03-05T07:01:43;4.50;99.90
42019;DHT22;27703;51.980;5.848;2023-03-05T07:04:10;4.50;99.90
42019;DHT22;27703;51.980;5.848;2023-03-05T07:06:37;4.50;99.90
42019;DHT22;27703;51.980;5.848;2023-03-05T07:09:05;4.50;99.90
42019;DHT22;27703;51.980;5.848;2023-03-05T07:11:31;4.50;99.90
42019;DHT22;27703;51.980;5.848;2023-03-05T07:13:57;4.60;99.90
42019;DHT22;27703;51.980;5.848;2023-03-05T07:16:25;4.60;99.90
42019;DHT22;27703;51.980;5.848;2023-03-05T07:18:52;4.60;99.90
42019;DHT22;27703;51.980;5.848;2023-03-05T07:21:23;4.70;99.90
42019;DHT22;27703;51.980;5.848;2023-03-05T07:23:49;4.70;99.90
42019;DHT22;27703;51.980;5.848;2023-03-05T07:26:15;4.70;99.90
42019;DHT22;27703;51.980;5.848;2023-03-05T07:28:41;4.70;99.90
42019;DHT22;27703;51.980;5.848;2023-03-05T07:31:12;4.70;99.90
42019;DHT22;27703;51.980;5.848;2023-03-05T07:33:37;4.80;99.90
42019;DHT22;27703;51.980;5.848;2023-03-05T07:36:06;4.80;99.90
42019;DHT22;27703;51.980;5.848;2023-03-05T07:38:32;4.80;99.90
42019;DHT22;27703;51.980;5.848;2023-03-05T07:41:03;4.90;99.90
42019;DHT22;27703;51.980;5.848;2023-03-05T07:43:28;4.90;99.90
42019;DHT22;27703;51.980;5.848;2023-03-05T07:45:54;4.90;99.90
42019;DHT22;27703;51.980;5.848;2023-03-05T07:48:19;4.90;99.90
42019;DHT22;27703;51.980;5.848;2023-03-05T07:50:46;4.90;99.90
42019;DHT22;27703;51.980;5.848;2023-03-05T07:53:12;4.90;99.90
42019;DHT22;27703;51.980;5.848;2023-03-05T07:55:44;5.00;99.90
42019;DHT22;27703;51.980;5.848;2023-03-05T07:58:11;5.00;99.90
42019;DHT22;27703;51.980;5.848;2023-03-05T08:00:37;5.00;99.90
42019;DHT22;27703;51.980;5.848;2023-03-05T08:03:03;5.00;99.90
42019;DHT22;27703;51.980;5.848;2023-03-05T08:05:28;5.10;99.90
42019;DHT22;27703;51.980;5.848;2023-03-05T08:07:54;5.10;99.90
42019;DHT22;27703;51.980;5.848;2023-03-05T08:10:20;5.10;99.90
42019;DHT22;27703;51.980;5.848;2023-03-05T08:12:45;5.20;99.90
42019;DHT22;27703;51.980;5.848;2023-03-05T08:15:11;5.20;99.90
42019;DHT22;27703;51.980;5.848;2023-03-05T08:17:36;5.20;99.90
42019;DHT22;27703;51.980;5.848;2023-03-05T08:20:03;5.20;99.90
42019;DHT22;27703;51.980;5.848;2023-03-05T08:22:32;5.20;99.90
42019;DHT22;27703;51.980;5.848;2023-03-05T08:24:58;5.20;99.90
42019;DHT22;27703;51.980;5.848;2023-03-05T08:27:24;5.30;99.90
42019;DHT22;27703;51.980;5.848;2023-03-05T08:29:50;5.30;99.90
42019;DHT22;27703;51.980;5.848;2023-03-05T08:32:15;5.40;99.90
42019;DHT22;27703;51.980;5.848;2023-03-05T08:34:41;5.50;99.90
42019;DHT22;27703;51.980;5.848;2023-03-05T08:37:06;5.50;99.90
42019;DHT22;27703;51.980;5.848;2023-03-05T08:39:34;5.50;99.90
42019;DHT22;27703;51.980;5.848;2023-03-05T08:41:59;5.50;99.90
42019;DHT22;27703;51.980;5.848;2023-03-05T08:44:25;5.50;99.90
42019;DHT22;27703;51.980;5.848;2023-03-05T08:46:50;5.60;99.90
42019;DHT22;27703;51.980;5.848;2023-03-05T08:49:16;5.60;99.90
42019;DHT22;27703;51.980;5.848;2023-03-05T08:51:41;5.60;99.90
42019;DHT22;27703;51.980;5.848;2023-03-05T08:54:08;5.60;99.90
42019;DHT22;27703;51.980;5.848;2023-03-05T08:56:34;5.60;99.90
42019;DHT22;27703;51.980;5.848;2023-03-05T08:59:01;5.70;99.90
42019;DHT22;27703;51.980;5.848;2023-03-05T09:01:27;5.80;99.90
42019;DHT22;27703;51.980;5.848;2023-03-05T09:03:53;5.90;99.90
42019;DHT22;27703;51.980;5.848;2023-03-05T09:06:19;5.90;99.90
42019;DHT22;27703;51.980;5.848;2023-03-05T09:08:45;6.00;99.90
42019;DHT22;27703;51.980;5.848;2023-03-05T09:11:12;5.90;99.90
42019;DHT22;27703;51.980;5.848;2023-03-05T09:13:38;6.00;99.90
42019;DHT22;27703;51.980;5.848;2023-03-05T09:16:06;6.00;99.90
42019;DHT22;27703;51.980;5.848;2023-03-05T09:18:32;6.00;99.90
42019;DHT22;27703;51.980;5.848;2023-03-05T09:21:07;6.00;99.90
42019;DHT22;27703;51.980;5.848;2023-03-05T09:23:33;6.00;99.90
42019;DHT22;27703;51.980;5.848;2023-03-05T09:25:58;6.10;99.90
42019;DHT22;27703;51.980;5.848;2023-03-05T09:28:25;6.00;99.90
42019;DHT22;27703;51.980;5.848;2023-03-05T09:30:50;6.10;99.90
42019;DHT22;27703;51.980;5.848;2023-03-05T09:33:16;6.10;99.90
42019;DHT22;27703;51.980;5.848;2023-03-05T09:35:41;6.10;99.90
42019;DHT22;27703;51.980;5.848;2023-03-05T09:38:07;6.20;99.90
42019;DHT22;27703;51.980;5.848;2023-03-05T09:41:06;6.20;99.90
42019;DHT22;27703;51.980;5.848;2023-03-05T09:43:52;6.20;99.90
42019;DHT22;27703;51.980;5.848;2023-03-05T09:51:36;6.20;99.90
42019;DHT22;27703;51.980;5.848;2023-03-05T09:54:15;6.20;99.90
42019;DHT22;27703;51.980;5.848;2023-03-05T09:56:47;6.30;99.90
42019;DHT22;27703;51.980;5.848;2023-03-05T09:59:22;6.30;99.90
42019;DHT22;27703;51.980;5.848;2023-03-05T10:01:52;6.30;99.90
42019;DHT22;27703;51.980;5.848;2023-03-05T10:04:22;6.40;99.90
42019;DHT22;27703;51.980;5.848;2023-03-05T10:09:34;6.50;99.90
42019;DHT22;27703;51.980;5.848;2023-03-05T10:14:41;6.40;99.90
42019;DHT22;27703;51.980;5.848;2023-03-05T10:17:26;6.40;99.90
42019;DHT22;27703;51.980;5.848;2023-03-05T10:27:51;6.50;99.90
42019;DHT22;27703;51.980;5.848;2023-03-05T10:30:51;6.50;99.90
42019;DHT22;27703;51.980;5.848;2023-03-05T10:33:39;6.50;99.90
42019;DHT22;27703;51.980;5.848;2023-03-05T10:41:22;6.70;99.90
42019;DHT22;27703;51.980;5.848;2023-03-05T10:43:55;6.70;99.90
42019;DHT22;27703;51.980;5.848;2023-03-05T10:46:30;6.70;99.90
42019;DHT22;27703;51.980;5.848;2023-03-05T10:49:01;6.70;99.90
42019;DHT22;27703;51.980;5.848;2023-03-05T10:51:33;6.70;99.90
42019;DHT22;27703;51.980;5.848;2023-03-05T10:54:08;6.70;99.90
42019;DHT22;27703;51.980;5.848;2023-03-05T10:56:36;6.70;99.90
42019;DHT22;27703;51.980;5.848;2023-03-05T10:59:01;6.80;99.90
42019;DHT22;27703;51.980;5.848;2023-03-05T11:01:28;6.80;99.90
42019;DHT22;27703;51.980;5.848;2023-03-05T11:04:00;6.80;99.90
42019;DHT22;27703;51.980;5.848;2023-03-05T11:06:33;6.90;99.90
42019;DHT22;27703;51.980;5.848;2023-03-05T11:09:21;6.90;99.90
42019;DHT22;27703;51.980;5.848;2023-03-05T11:14:46;6.90;99.90
42019;DHT22;27703;51.980;5.848;2023-03-05T11:17:26;6.90;99.90
42019;DHT22;27703;51.980;5.848;2023-03-05T11:19:54;7.00;99.90
42019;DHT22;27703;51.980;5.848;2023-03-05T11:22:21;7.10;99.90
42019;DHT22;27703;51.980;5.848;2023-03-05T11:27:36;7.40;99.90
42019;DHT22;27703;51.980;5.848;2023-03-05T11:30:26;7.50;99.90
42019;DHT22;27703;51.980;5.848;2023-03-05T11:33:09;7.60;99.90
42019;DHT22;27703;51.980;5.848;2023-03-05T11:35:37;7.70;99.90
42019;DHT22;27703;51.980;5.848;2023-03-05T11:38:06;7.80;99.90
42019;DHT22;27703;51.980;5.848;2023-03-05T11:40:39;7.80;99.90
42019;DHT22;27703;51.980;5.848;2023-03-05T11:43:04;7.90;99.90
42019;DHT22;27703;51.980;5.848;2023-03-05T11:45:31;7.90;99.90
42019;DHT22;27703;51.980;5.848;2023-03-05T11:48:07;8.00;99.90
42019;DHT22;27703;51.980;5.848;2023-03-05T11:50:34;8.00;99.90
42019;DHT22;27703;51.980;5.848;2023-03-05T11:53:06;8.00;99.90
42019;DHT22;27703;51.980;5.848;2023-03-05T12:00:53;8.00;99.90
42019;DHT22;27703;51.980;5.848;2023-03-05T12:03:32;7.90;99.90
42019;DHT22;27703;51.980;5.848;2023-03-05T12:06:22;7.90;99.90
42019;DHT22;27703;51.980;5.848;2023-03-05T12:08:52;7.90;99.90
42019;DHT22;27703;51.980;5.848;2023-03-05T12:11:21;7.80;99.90
42019;DHT22;27703;51.980;5.848;2023-03-05T12:17:26;7.80;99.90
42019;DHT22;27703;51.980;5.848;2023-03-05T12:22:23;7.70;99.90
42019;DHT22;27703;51.980;5.848;2023-03-05T12:24:50;7.70;99.90
42019;DHT22;27703;51.980;5.848;2023-03-05T12:27:35;7.80;99.90
42019;DHT22;27703;51.980;5.848;2023-03-05T12:30:02;7.80;99.90
42019;DHT22;27703;51.980;5.848;2023-03-05T12:34:58;8.20;99.90
42019;DHT22;27703;51.980;5.848;2023-03-05T12:55:29;8.30;99.90
42019;DHT22;27703;51.980;5.848;2023-03-05T12:58:19;8.20;99.90
42019;DHT22;27703;51.980;5.848;2023-03-05T13:00:52;8.20;99.90
42019;DHT22;27703;51.980;5.848;2023-03-05T13:03:34;8.10;99.90
42019;DHT22;27703;51.980;5.848;2023-03-05T13:06:00;8.10;99.90
42019;DHT22;27703;51.980;5.848;2023-03-05T13:08:33;8.00;99.90
42019;DHT22;27703;51.980;5.848;2023-03-05T13:11:03;8.00;99.90
42019;DHT22;27703;51.980;5.848;2023-03-05T13:13:34;7.90;99.90
42019;DHT22;27703;51.980;5.848;2023-03-05T13:16:01;7.90;99.90
42019;DHT22;27703;51.980;5.848;2023-03-05T13:18:29;7.80;99.90
42019;DHT22;27703;51.980;5.848;2023-03-05T13:21:14;7.80;99.90
42019;DHT22;27703;51.980;5.848;2023-03-05T13:23:51;7.80;99.90
42019;DHT22;27703;51.980;5.848;2023-03-05T13:26:23;7.70;99.90
42019;DHT22;27703;51.980;5.848;2023-03-05T13:29:12;7.70;99.90
42019;DHT22;27703;51.980;5.848;2023-03-05T13:31:48;7.70;99.90
42019;DHT22;27703;51.980;5.848;2023-03-05T13:34:20;7.70;99.90
42019;DHT22;27703;51.980;5.848;2023-03-05T13:39:49;7.60;99.90
42019;DHT22;27703;51.980;5.848;2023-03-05T13:42:27;7.50;99.90
42019;DHT22;27703;51.980;5.848;2023-03-05T13:44:57;7.50;99.90
42019;DHT22;27703;51.980;5.848;2023-03-05T13:47:27;7.50;99.90
42019;DHT22;27703;51.980;5.848;2023-03-05T13:49:57;7.50;99.90
42019;DHT22;27703;51.980;5.848;2023-03-05T13:52:35;7.50;99.90
42019;DHT22;27703;51.980;5.848;2023-03-05T13:55:03;7.50;99.90
42019;DHT22;27703;51.980;5.848;2023-03-05T13:57:39;7.50;99.90
42019;DHT22;27703;51.980;5.848;2023-03-05T14:00:31;7.50;99.90
42019;DHT22;27703;51.980;5.848;2023-03-05T14:03:09;7.60;99.90
42019;DHT22;27703;51.980;5.848;2023-03-05T14:05:36;7.60;99.90
42019;DHT22;27703;51.980;5.848;2023-03-05T14:08:19;7.60;99.90
42019;DHT22;27703;51.980;5.848;2023-03-05T14:10:45;7.70;99.90
42019;DHT22;27703;51.980;5.848;2023-03-05T14:13:16;7.70;99.90
42019;DHT22;27703;51.980;5.848;2023-03-05T14:16:05;7.70;99.90
42019;DHT22;27703;51.980;5.848;2023-03-05T14:18:31;7.60;99.90
42019;DHT22;27703;51.980;5.848;2023-03-05T14:21:09;7.60;99.90
42019;DHT22;27703;51.980;5.848;2023-03-05T14:23:37;7.60;99.90
42019;DHT22;27703;51.980;5.848;2023-03-05T14:26:30;7.70;99.90
42019;DHT22;27703;51.980;5.848;2023-03-05T14:29:03;7.80;99.90
42019;DHT22;27703;51.980;5.848;2023-03-05T14:31:34;7.80;99.90
42019;DHT22;27703;51.980;5.848;2023-03-05T14:34:03;7.80;99.90
42019;DHT22;27703;51.980;5.848;2023-03-05T14:36:30;7.80;99.90
42019;DHT22;27703;51.980;5.848;2023-03-05T14:38:56;7.90;99.90
42019;DHT22;27703;51.980;5.848;2023-03-05T14:41:35;7.90;99.90
42019;DHT22;27703;51.980;5.848;2023-03-05T14:44:01;7.90;99.90
42019;DHT22;27703;51.980;5.848;2023-03-05T14:46:27;7.90;99.90
42019;DHT22;27703;51.980;5.848;2023-03-05T14:48:53;7.90;99.90
42019;DHT22;27703;51.980;5.848;2023-03-05T14:51:19;7.90;99.90
42019;DHT22;27703;51.980;5.848;2023-03-05T14:53:47;7.90;99.90
42019;DHT22;27703;51.980;5.848;2023-03-05T14:56:25;7.80;99.90
42019;DHT22;27703;51.980;5.848;2023-03-05T14:58:52;7.90;99.90
42019;DHT22;27703;51.980;5.848;2023-03-05T15:01:17;7.80;99.90
42019;DHT22;27703;51.980;5.848;2023-03-05T15:03:43;7.80;99.90
42019;DHT22;27703;51.980;5.848;2023-03-05T15:06:29;7.80;99.90
42019;DHT22;27703;51.980;5.848;2023-03-05T15:08:57;7.80;99.90
42019;DHT22;27703;51.980;5.848;2023-03-05T15:11:23;7.70;99.90
42019;DHT22;27703;51.980;5.848;2023-03-05T15:13:49;7.70;99.90
42019;DHT22;27703;51.980;5.848;2023-03-05T15:16:16;7.70;99.90
42019;DHT22;27703;51.980;5.848;2023-03-05T15:18:42;7.70;99.90
42019;DHT22;27703;51.980;5.848;2023-03-05T15:21:08;7.60;99.90
42019;DHT22;27703;51.980;5.848;2023-03-05T15:23:34;7.60;99.90
42019;DHT22;27703;51.980;5.848;2023-03-05T15:26:03;7.60;99.90
42019;DHT22;27703;51.980;5.848;2023-03-05T15:28:35;7.50;99.90
42019;DHT22;27703;51.980;5.848;2023-03-05T15:31:01;7.50;99.90
42019;DHT22;27703;51.980;5.848;2023-03-05T15:33:28;7.50;99.90
42019;DHT22;27703;51.980;5.848;2023-03-05T15:35:54;7.50;99.90
42019;DHT22;27703;51.980;5.848;2023-03-05T15:38:20;7.50;99.90
42019;DHT22;27703;51.980;5.848;2023-03-05T15:40:45;7.50;99.90
42019;DHT22;27703;51.980;5.848;2023-03-05T15:43:12;7.50;99.90
42019;DHT22;27703;51.980;5.848;2023-03-05T15:45:37;7.50;99.90
42019;DHT22;27703;51.980;5.848;2023-03-05T15:48:03;7.40;99.90
42019;DHT22;27703;51.980;5.848;2023-03-05T15:50:29;7.40;99.90
42019;DHT22;27703;51.980;5.848;2023-03-05T15:52:54;7.30;99.90
42019;DHT22;27703;51.980;5.848;2023-03-05T15:55:21;7.30;99.90
42019;DHT22;27703;51.980;5.848;2023-03-05T15:57:49;7.30;99.90
42019;DHT22;27703;51.980;5.848;2023-03-05T16:00:17;7.20;99.90
42019;DHT22;27703;51.980;5.848;2023-03-05T16:02:44;7.20;99.90
42019;DHT22;27703;51.980;5.848;2023-03-05T16:05:09;7.10;99.90
42019;DHT22;27703;51.980;5.848;2023-03-05T16:07:38;7.10;99.90
42019;DHT22;27703;51.980;5.848;2023-03-05T16:10:05;7.10;99.90
42019;DHT22;27703;51.980;5.848;2023-03-05T16:12:35;7.00;99.90
42019;DHT22;27703;51.980;5.848;2023-03-05T16:15:06;7.00;99.90
42019;DHT22;27703;51.980;5.848;2023-03-05T16:17:32;7.00;99.90
42019;DHT22;27703;51.980;5.848;2023-03-05T16:19:58;6.90;99.90
42019;DHT22;27703;51.980;5.848;2023-03-05T16:22:24;6.90;99.90
42019;DHT22;27703;51.980;5.848;2023-03-05T16:24:49;6.90;99.90
42019;DHT22;27703;51.980;5.848;2023-03-05T16:27:15;6.90;99.90
42019;DHT22;27703;51.980;5.848;2023-03-05T16:29:40;6.90;99.90
42019;DHT22;27703;51.980;5.848;2023-03-05T16:32:06;6.90;99.90
42019;DHT22;27703;51.980;5.848;2023-03-05T16:34:31;6.80;99.90
42019;DHT22;27703;51.980;5.848;2023-03-05T16:36:59;6.80;99.90
42019;DHT22;27703;51.980;5.848;2023-03-05T16:39:26;6.80;99.90
42019;DHT22;27703;51.980;5.848;2023-03-05T16:41:52;6.80;99.90
42019;DHT22;27703;51.980;5.848;2023-03-05T16:44:18;6.80;99.90
42019;DHT22;27703;51.980;5.848;2023-03-05T16:46:43;6.70;99.90
42019;DHT22;27703;51.980;5.848;2023-03-05T16:49:13;6.60;99.90
42019;DHT22;27703;51.980;5.848;2023-03-05T16:51:39;6.50;99.90
42019;DHT22;27703;51.980;5.848;2023-03-05T16:54:05;6.40;99.90
42019;DHT22;27703;51.980;5.848;2023-03-05T16:56:31;6.20;99.90
42019;DHT22;27703;51.980;5.848;2023-03-05T16:58:56;6.10;99.90
42019;DHT22;27703;51.980;5.848;2023-03-05T17:01:22;6.10;99.90